Weather History for Perryton, TX

Change the Weather History Date:

Sunday, December 9, 2012

  Actual Average Record
Temperature  
Mean Temperature 31 °F -  
Max Temperature 41 °F 47 °F 72 °F (1970)
Min Temperature 21 °F 21 °F -3 °F (1978)
Degree Days  
Heating Degree Days 34    
Moisture  
Dew Point 16 °F    
Average Humidity 55    
Maximum Humidity 100    
Minimum Humidity 35    
Precipitation  
Precipitation 0.00 in - - ()
Sea Level Pressure  
Sea Level Pressure 30.03 in    
Wind  
Wind Speed 19 mph (North)    
Max Wind Speed 32 mph    
Max Gust Speed 43 mph    
Visibility 9 miles    
Events      
Averages and records for this station are not official NWS values.
T = Trace of Precipitation, MM = Missing Value Source: NWS Daily Summary

Daily Weather History Graph

Daily Weather History Graph

Search for Another Location

Airport:

Trip Planner

Search our weather history database for the weather conditions in past years. The results will help you decide how hot, cold, wet, or windy it might be!

Date:

Astronomy

Dec. 09, 2012 Rise Set
Actual Time 7:43 AM CST 5:27 PM CST
Civil Twilight 7:14 AM CST 5:56 PM CST
Nautical Twilight 6:42 AM CST 6:28 PM CST
Astronomical Twilight 6:11 AM CST 6:59 PM CST
Moon 3:23 AM CST (12/9) 2:31 PM CST (12/9)
Length of Visible Light 10h 41m
Length of Day
9h 44m
Waning Crescent, 18% of the Moon is Illuminated
Dec 9
Waning Crescent
Dec 13
New
Dec 19
First Quarter
Dec 28
Full
Jan 4
Last Quarter

Hourly Weather History & Observations

Time (CST) Temp. Windchill Dew Point Humidity Pressure Visibility Wind Dir Wind Speed Gust Speed Precip Events Conditions
12:15 AM 37.4 °F 30.3 °F 37.4 °F 100% 29.74 in 0.8 mi NE 10.4 mph 18.4 mph N/A   Overcast
12:35 AM 39.2 °F 31.2 °F 37.4 °F 93% 29.76 in 1.5 mi NNE 13.8 mph - N/A   Overcast
12:55 AM 39.2 °F 31.2 °F 37.4 °F 93% 29.78 in 1.5 mi NNE 13.8 mph - N/A   Overcast
1:15 AM 41.0 °F 31.9 °F 39.2 °F 93% 29.78 in 2.5 mi NNE 19.6 mph 24.2 mph N/A   Overcast
1:35 AM 37.4 °F 28.9 °F 37.4 °F 100% 29.79 in 1.2 mi NNE 13.8 mph 21.9 mph N/A   Overcast
1:55 AM 39.2 °F 29.8 °F 37.4 °F 93% 29.80 in 1.0 mi North 18.4 mph 23.0 mph N/A   Overcast
2:15 AM 37.4 °F 28.5 °F 37.4 °F 100% 29.82 in 0.5 mi North 15.0 mph 21.9 mph N/A   Overcast
2:35 AM 37.4 °F 28.2 °F 37.4 °F 100% 29.83 in 0.5 mi North 16.1 mph 24.2 mph N/A   Overcast
2:55 AM 37.4 °F 27.2 °F 37.4 °F 100% 29.84 in 0.8 mi North 19.6 mph 25.3 mph N/A   Overcast
3:15 AM 37.4 °F 27.2 °F 35.6 °F 93% 29.85 in 4.0 mi North 19.6 mph 26.5 mph N/A   Overcast
3:35 AM 37.4 °F 27.5 °F 35.6 °F 93% 29.86 in 4.0 mi North 18.4 mph 24.2 mph N/A   Overcast
3:55 AM 35.6 °F 24.5 °F 35.6 °F 100% 29.87 in 5.0 mi North 20.7 mph - N/A   Overcast
4:15 AM 35.6 °F 24.2 °F 32.0 °F 87% 29.88 in 10.0 mi North 21.9 mph 27.6 mph N/A   Overcast
4:35 AM 35.6 °F 24.5 °F 30.2 °F 81% 29.89 in 10.0 mi North 20.7 mph 29.9 mph N/A   Overcast
4:55 AM 33.8 °F 22.5 °F 28.4 °F 81% 29.89 in 10.0 mi North 19.6 mph 27.6 mph N/A   Overcast
5:15 AM 33.8 °F 22.8 °F 26.6 °F 75% 29.91 in 10.0 mi North 18.4 mph 23.0 mph N/A   Overcast
5:35 AM 33.8 °F 23.5 °F 26.6 °F 75% 29.90 in 10.0 mi North 16.1 mph 23.0 mph N/A   Overcast
5:55 AM 32.0 °F 22.1 °F 26.6 °F 80% 29.91 in 10.0 mi North 13.8 mph - N/A   Overcast
6:15 AM 32.0 °F 20.8 °F 24.8 °F 75% 29.92 in 10.0 mi North 17.3 mph - N/A   Overcast
6:35 AM 33.8 °F 23.2 °F 23.0 °F 65% 29.94 in 10.0 mi North 17.3 mph 21.9 mph N/A   Overcast
6:55 AM 33.8 °F 23.2 °F 23.0 °F 65% 29.94 in 10.0 mi North 17.3 mph - N/A   Overcast
7:15 AM 33.8 °F 23.2 °F 21.2 °F 60% 29.96 in 10.0 mi North 17.3 mph 25.3 mph N/A   Overcast
7:35 AM 33.8 °F 22.8 °F 21.2 °F 60% 29.97 in 10.0 mi North 18.4 mph 24.2 mph N/A   Overcast
7:55 AM 32.0 °F 20.1 °F 19.4 °F 60% 29.98 in 10.0 mi North 19.6 mph 25.3 mph N/A   Overcast
8:15 AM 33.8 °F 22.8 °F 19.4 °F 56% 29.98 in 10.0 mi North 18.4 mph 24.2 mph N/A   Overcast
8:35 AM 33.8 °F 21.9 °F 17.6 °F 52% 30.00 in 10.0 mi North 21.9 mph 28.8 mph N/A   Overcast
8:55 AM 33.8 °F 21.3 °F 17.6 °F 52% 30.01 in 10.0 mi North 24.2 mph 29.9 mph N/A   Overcast
9:15 AM 33.8 °F 20.3 °F 15.8 °F 48% 30.03 in 10.0 mi North 28.8 mph 34.5 mph N/A   Overcast
9:35 AM 33.8 °F 21.3 °F 14.0 °F 44% 30.05 in 10.0 mi North 24.2 mph 32.2 mph N/A   Overcast
9:55 AM 33.8 °F 19.6 °F 12.2 °F 41% 30.06 in 10.0 mi North 32.2 mph 42.6 mph N/A   Overcast
10:15 AM 35.6 °F 23.4 °F 12.2 °F 38% 30.07 in 10.0 mi North 25.3 mph 32.2 mph N/A   Overcast
10:35 AM 35.6 °F 23.7 °F 14.0 °F 41% 30.08 in 10.0 mi NNW 24.2 mph 29.9 mph N/A   Overcast
10:55 AM 35.6 °F 24.0 °F 12.2 °F 38% 30.08 in 10.0 mi NNW 23.0 mph 31.1 mph N/A   Overcast
11:15 AM 35.6 °F 23.0 °F 10.4 °F 35% 30.08 in 10.0 mi NNW 27.6 mph 31.1 mph N/A   Overcast
11:35 AM 35.6 °F 24.0 °F 10.4 °F 35% 30.08 in 10.0 mi NNW 23.0 mph 31.1 mph N/A   Overcast
12:15 PM 33.8 °F 21.3 °F 10.4 °F 38% 30.07 in 10.0 mi North 24.2 mph 29.9 mph N/A   Overcast
12:35 PM 33.8 °F 22.5 °F 10.4 °F 38% 30.07 in 10.0 mi North 19.6 mph 25.3 mph N/A   Overcast
12:55 PM 33.8 °F 22.2 °F 10.4 °F 38% 30.06 in 10.0 mi NNW 20.7 mph 25.3 mph N/A   Overcast
1:15 PM 33.8 °F 22.2 °F 10.4 °F 38% 30.07 in 10.0 mi North 20.7 mph 26.5 mph N/A   Overcast
1:35 PM 33.8 °F 21.0 °F 10.4 °F 38% 30.06 in 10.0 mi North 25.3 mph 29.9 mph N/A   Overcast
1:55 PM 33.8 °F 20.8 °F 10.4 °F 38% 30.05 in 10.0 mi North 26.5 mph 38.0 mph N/A   Overcast
2:15 PM 32.0 °F 18.4 °F 8.6 °F 38% 30.06 in 10.0 mi North 26.5 mph 35.7 mph N/A   Overcast
2:35 PM 32.0 °F 18.1 °F 8.6 °F 38% 30.07 in 10.0 mi NNW 27.6 mph 33.4 mph N/A   Overcast
2:55 PM 32.0 °F 18.4 °F 8.6 °F 38% 30.07 in 10.0 mi North 26.5 mph 33.4 mph N/A   Overcast
3:15 PM 32.0 °F 17.6 °F 8.6 °F 38% 30.05 in 10.0 mi North 29.9 mph 33.4 mph N/A   Overcast
3:35 PM 32.0 °F 18.9 °F 8.6 °F 38% 30.06 in 10.0 mi North 24.2 mph 33.4 mph N/A   Overcast
3:55 PM 32.0 °F 18.6 °F 8.6 °F 38% 30.08 in 10.0 mi NNW 25.3 mph 32.2 mph N/A   Overcast
4:15 PM 30.2 °F 16.8 °F 8.6 °F 40% 30.09 in 10.0 mi North 23.0 mph 32.2 mph N/A   Overcast
4:35 PM 30.2 °F 16.8 °F 8.6 °F 40% 30.09 in 10.0 mi NNW 23.0 mph 29.9 mph N/A   Overcast
4:55 PM 30.2 °F 15.9 °F 6.8 °F 37% 30.10 in 10.0 mi North 26.5 mph 34.5 mph N/A   Overcast
5:15 PM 30.2 °F 15.9 °F 6.8 °F 37% 30.10 in 10.0 mi NNW 26.5 mph 29.9 mph N/A   Overcast
5:35 PM 30.2 °F 16.8 °F 6.8 °F 37% 30.11 in 10.0 mi North 23.0 mph 29.9 mph N/A   Overcast
5:55 PM 30.2 °F 16.8 °F 6.8 °F 37% 30.12 in 10.0 mi North 23.0 mph 29.9 mph N/A   Overcast
6:15 PM 30.2 °F 17.8 °F 6.8 °F 37% 30.12 in 10.0 mi North 19.6 mph 28.8 mph N/A   Overcast
6:35 PM 30.2 °F 17.4 °F 6.8 °F 37% 30.14 in 10.0 mi North 20.7 mph 26.5 mph N/A   Overcast
6:55 PM 30.2 °F 17.1 °F 6.8 °F 37% 30.15 in 10.0 mi North 21.9 mph 28.8 mph N/A   Overcast
7:15 PM 30.2 °F 16.5 °F 6.8 °F 37% 30.16 in 10.0 mi North 24.2 mph 32.2 mph N/A   Overcast
7:35 PM 30.2 °F 15.9 °F 6.8 °F 37% 30.18 in 10.0 mi North 26.5 mph 33.4 mph N/A   Overcast
7:55 PM 28.4 °F 14.7 °F 5.0 °F 37% 30.19 in 10.0 mi NNW 21.9 mph - N/A   Overcast
8:15 PM 28.4 °F 13.8 °F 5.0 °F 37% 30.19 in 10.0 mi North 25.3 mph 32.2 mph N/A   Overcast
8:35 PM 28.4 °F 15.1 °F 5.0 °F 37% 30.19 in 10.0 mi North 20.7 mph 31.1 mph N/A   Overcast
8:55 PM 28.4 °F 13.0 °F 5.0 °F 37% 30.19 in 10.0 mi North 28.8 mph 34.5 mph N/A   Overcast
9:15 PM 26.6 °F 13.1 °F 5.0 °F 40% 30.21 in 10.0 mi North 19.6 mph 29.9 mph N/A   Overcast
9:35 PM 26.6 °F 12.0 °F 5.0 °F 40% 30.20 in 10.0 mi North 23.0 mph 29.9 mph N/A   Overcast
9:55 PM 26.6 °F 13.1 °F 5.0 °F 40% 30.19 in 10.0 mi North 19.6 mph 26.5 mph N/A   Mostly Cloudy
10:15 PM 26.6 °F 13.1 °F 5.0 °F 40% 30.19 in 10.0 mi NNW 19.6 mph 28.8 mph N/A   Scattered Clouds
10:35 PM 23.0 °F 8.3 °F 5.0 °F 46% 30.21 in 10.0 mi NNW 19.6 mph 26.5 mph N/A   Clear
10:55 PM 23.0 °F 8.0 °F 5.0 °F 46% 30.21 in 10.0 mi North 20.7 mph 24.2 mph N/A   Clear
11:15 PM 23.0 °F 8.7 °F 3.2 °F 43% 30.21 in 10.0 mi North 18.4 mph 24.2 mph N/A   Clear
11:35 PM 21.2 °F 7.8 °F 3.2 °F 46% 30.21 in 10.0 mi NNW 15.0 mph - N/A   Clear
11:55 PM 21.2 °F 6.4 °F 3.2 °F 46% 30.21 in 10.0 mi NNW 18.4 mph 23.0 mph N/A   Clear